sensor_id;sensor_type;location;lat;lon;timestamp;P1;durP1;ratioP1;P2;durP2;ratioP2
70342;SDS011;57767;42.068;24.752;2023-09-08T00:01:02;6.43;;;3.00;;
70342;SDS011;57767;42.068;24.752;2023-09-08T00:02:04;6.63;;;3.17;;
70342;SDS011;57767;42.068;24.752;2023-09-08T00:03:06;6.50;;;2.95;;
70342;SDS011;57767;42.068;24.752;2023-09-08T00:04:07;4.07;;;2.92;;
70342;SDS011;57767;42.068;24.752;2023-09-08T00:05:09;6.13;;;3.10;;
70342;SDS011;57767;42.068;24.752;2023-09-08T00:06:12;4.55;;;3.22;;
70342;SDS011;57767;42.068;24.752;2023-09-08T00:07:16;11.82;;;3.70;;
70342;SDS011;57767;42.068;24.752;2023-09-08T00:08:18;6.13;;;3.22;;
70342;SDS011;57767;42.068;24.752;2023-09-08T00:09:20;6.82;;;3.55;;
70342;SDS011;57767;42.068;24.752;2023-09-08T00:10:21;4.05;;;3.20;;
70342;SDS011;57767;42.068;24.752;2023-09-08T00:11:23;9.40;;;3.10;;
70342;SDS011;57767;42.068;24.752;2023-09-08T00:12:25;6.85;;;2.92;;
70342;SDS011;57767;42.068;24.752;2023-09-08T00:13:26;6.85;;;3.25;;
70342;SDS011;57767;42.068;24.752;2023-09-08T00:14:28;5.65;;;3.13;;
70342;SDS011;57767;42.068;24.752;2023-09-08T00:15:30;4.65;;;3.13;;
70342;SDS011;57767;42.068;24.752;2023-09-08T00:16:31;4.93;;;3.10;;
70342;SDS011;57767;42.068;24.752;2023-09-08T00:17:33;5.70;;;3.15;;
70342;SDS011;57767;42.068;24.752;2023-09-08T00:18:35;4.47;;;2.90;;
70342;SDS011;57767;42.068;24.752;2023-09-08T00:19:37;4.63;;;3.20;;
70342;SDS011;57767;42.068;24.752;2023-09-08T00:20:39;6.82;;;3.00;;
70342;SDS011;57767;42.068;24.752;2023-09-08T00:21:43;7.45;;;3.28;;
70342;SDS011;57767;42.068;24.752;2023-09-08T00:22:45;6.07;;;3.03;;
70342;SDS011;57767;42.068;24.752;2023-09-08T00:23:46;4.95;;;3.10;;
70342;SDS011;57767;42.068;24.752;2023-09-08T00:24:48;6.80;;;3.08;;
70342;SDS011;57767;42.068;24.752;2023-09-08T00:25:50;3.88;;;2.88;;
70342;SDS011;57767;42.068;24.752;2023-09-08T00:26:52;7.45;;;3.17;;
70342;SDS011;57767;42.068;24.752;2023-09-08T00:27:54;4.78;;;2.90;;
70342;SDS011;57767;42.068;24.752;2023-09-08T00:28:55;4.25;;;3.00;;
70342;SDS011;57767;42.068;24.752;2023-09-08T00:29:57;8.25;;;2.88;;
70342;SDS011;57767;42.068;24.752;2023-09-08T00:30:59;4.93;;;2.85;;
70342;SDS011;57767;42.068;24.752;2023-09-08T00:32:02;3.63;;;2.80;;
70342;SDS011;57767;42.068;24.752;2023-09-08T00:33:04;6.45;;;3.17;;
70342;SDS011;57767;42.068;24.752;2023-09-08T00:34:10;6.38;;;2.95;;
70342;SDS011;57767;42.068;24.752;2023-09-08T00:35:11;8.40;;;3.10;;
70342;SDS011;57767;42.068;24.752;2023-09-08T00:36:14;5.82;;;3.10;;
70342;SDS011;57767;42.068;24.752;2023-09-08T00:37:16;7.03;;;3.20;;
70342;SDS011;57767;42.068;24.752;2023-09-08T00:38:18;8.38;;;3.38;;
70342;SDS011;57767;42.068;24.752;2023-09-08T00:39:19;4.93;;;3.05;;
70342;SDS011;57767;42.068;24.752;2023-09-08T00:40:21;5.70;;;3.08;;
70342;SDS011;57767;42.068;24.752;2023-09-08T00:41:23;5.78;;;3.03;;
70342;SDS011;57767;42.068;24.752;2023-09-08T00:42:25;6.72;;;2.90;;
70342;SDS011;57767;42.068;24.752;2023-09-08T00:43:27;5.97;;;2.90;;
70342;SDS011;57767;42.068;24.752;2023-09-08T00:44:28;3.70;;;2.97;;
70342;SDS011;57767;42.068;24.752;2023-09-08T00:45:30;4.00;;;3.08;;
70342;SDS011;57767;42.068;24.752;2023-09-08T00:46:32;8.20;;;2.88;;
70342;SDS011;57767;42.068;24.752;2023-09-08T00:47:35;3.75;;;2.85;;
70342;SDS011;57767;42.068;24.752;2023-09-08T00:48:37;3.30;;;2.72;;
70342;SDS011;57767;42.068;24.752;2023-09-08T00:49:39;6.60;;;3.28;;
70342;SDS011;57767;42.068;24.752;2023-09-08T00:50:41;4.18;;;2.88;;
70342;SDS011;57767;42.068;24.752;2023-09-08T00:51:43;4.80;;;3.30;;
70342;SDS011;57767;42.068;24.752;2023-09-08T00:52:44;5.60;;;2.70;;
70342;SDS011;57767;42.068;24.752;2023-09-08T00:53:46;4.32;;;3.20;;
70342;SDS011;57767;42.068;24.752;2023-09-08T00:54:48;4.43;;;2.78;;
70342;SDS011;57767;42.068;24.752;2023-09-08T00:55:50;7.22;;;3.00;;
70342;SDS011;57767;42.068;24.752;2023-09-08T00:56:55;4.68;;;3.17;;
70342;SDS011;57767;42.068;24.752;2023-09-08T00:57:58;6.60;;;4.03;;
70342;SDS011;57767;42.068;24.752;2023-09-08T00:59:01;8.00;;;3.55;;
70342;SDS011;57767;42.068;24.752;2023-09-08T01:00:04;4.68;;;3.05;;
70342;SDS011;57767;42.068;24.752;2023-09-08T01:01:07;5.55;;;3.30;;
70342;SDS011;57767;42.068;24.752;2023-09-08T01:02:09;5.68;;;3.13;;
70342;SDS011;57767;42.068;24.752;2023-09-08T01:03:11;4.95;;;3.20;;
70342;SDS011;57767;42.068;24.752;2023-09-08T01:04:13;5.43;;;3.22;;
70342;SDS011;57767;42.068;24.752;2023-09-08T01:05:15;5.32;;;3.55;;
70342;SDS011;57767;42.068;24.752;2023-09-08T01:06:17;7.10;;;3.22;;
70342;SDS011;57767;42.068;24.752;2023-09-08T01:07:20;7.40;;;3.35;;
70342;SDS011;57767;42.068;24.752;2023-09-08T01:08:22;13.30;;;3.92;;
70342;SDS011;57767;42.068;24.752;2023-09-08T01:09:24;6.35;;;3.58;;
70342;SDS011;57767;42.068;24.752;2023-09-08T01:10:26;6.88;;;3.50;;
70342;SDS011;57767;42.068;24.752;2023-09-08T01:11:28;5.50;;;3.22;;
70342;SDS011;57767;42.068;24.752;2023-09-08T01:12:31;6.15;;;3.28;;
70342;SDS011;57767;42.068;24.752;2023-09-08T01:13:34;4.93;;;3.22;;
70342;SDS011;57767;42.068;24.752;2023-09-08T01:14:36;5.72;;;3.15;;
70342;SDS011;57767;42.068;24.752;2023-09-08T01:15:38;6.97;;;3.55;;
70342;SDS011;57767;42.068;24.752;2023-09-08T01:16:39;4.97;;;3.08;;
70342;SDS011;57767;42.068;24.752;2023-09-08T01:17:41;9.88;;;3.40;;
70342;SDS011;57767;42.068;24.752;2023-09-08T01:18:43;4.90;;;3.67;;
70342;SDS011;57767;42.068;24.752;2023-09-08T01:19:47;8.75;;;4.00;;
70342;SDS011;57767;42.068;24.752;2023-09-08T01:24:18;6.38;;;4.10;;
70342;SDS011;57767;42.068;24.752;2023-09-08T01:25:29;8.15;;;3.67;;
70342;SDS011;57767;42.068;24.752;2023-09-08T01:26:35;8.00;;;3.83;;
70342;SDS011;57767;42.068;24.752;2023-09-08T01:27:43;5.95;;;3.33;;
70342;SDS011;57767;42.068;24.752;2023-09-08T01:28:49;6.50;;;3.55;;
70342;SDS011;57767;42.068;24.752;2023-09-08T01:29:53;7.30;;;3.63;;
70342;SDS011;57767;42.068;24.752;2023-09-08T01:30:56;4.28;;;3.22;;
70342;SDS011;57767;42.068;24.752;2023-09-08T01:31:58;4.07;;;3.15;;
70342;SDS011;57767;42.068;24.752;2023-09-08T01:33:02;4.40;;;3.50;;
70342;SDS011;57767;42.068;24.752;2023-09-08T01:34:04;6.97;;;3.50;;
70342;SDS011;57767;42.068;24.752;2023-09-08T01:35:08;4.68;;;3.30;;
70342;SDS011;57767;42.068;24.752;2023-09-08T01:36:10;5.47;;;3.17;;
70342;SDS011;57767;42.068;24.752;2023-09-08T01:37:12;3.97;;;2.97;;
70342;SDS011;57767;42.068;24.752;2023-09-08T01:38:14;5.35;;;3.08;;
70342;SDS011;57767;42.068;24.752;2023-09-08T01:39:16;5.57;;;3.17;;
70342;SDS011;57767;42.068;24.752;2023-09-08T01:40:18;7.10;;;3.70;;
70342;SDS011;57767;42.068;24.752;2023-09-08T01:41:23;6.03;;;3.45;;
70342;SDS011;57767;42.068;24.752;2023-09-08T01:42:24;9.68;;;3.42;;
70342;SDS011;57767;42.068;24.752;2023-09-08T01:43:26;5.63;;;2.72;;
70342;SDS011;57767;42.068;24.752;2023-09-08T01:44:28;8.15;;;3.40;;
70342;SDS011;57767;42.068;24.752;2023-09-08T01:45:29;12.05;;;3.63;;
70342;SDS011;57767;42.068;24.752;2023-09-08T01:46:31;8.48;;;3.80;;
70342;SDS011;57767;42.068;24.752;2023-09-08T01:47:33;10.95;;;3.45;;
70342;SDS011;57767;42.068;24.752;2023-09-08T01:48:35;4.45;;;3.50;;
70342;SDS011;57767;42.068;24.752;2023-09-08T01:49:37;7.65;;;3.30;;
70342;SDS011;57767;42.068;24.752;2023-09-08T01:50:39;6.15;;;3.63;;
70342;SDS011;57767;42.068;24.752;2023-09-08T01:51:41;7.43;;;3.63;;
70342;SDS011;57767;42.068;24.752;2023-09-08T01:52:42;7.03;;;3.40;;
70342;SDS011;57767;42.068;24.752;2023-09-08T01:53:44;8.95;;;3.50;;
70342;SDS011;57767;42.068;24.752;2023-09-08T01:54:46;4.75;;;3.60;;
70342;SDS011;57767;42.068;24.752;2023-09-08T01:55:48;5.88;;;3.50;;
70342;SDS011;57767;42.068;24.752;2023-09-08T01:56:49;5.72;;;3.88;;
70342;SDS011;57767;42.068;24.752;2023-09-08T01:57:52;4.82;;;3.47;;
70342;SDS011;57767;42.068;24.752;2023-09-08T01:58:54;7.80;;;3.78;;
70342;SDS011;57767;42.068;24.752;2023-09-08T01:59:55;7.22;;;4.13;;
70342;SDS011;57767;42.068;24.752;2023-09-08T02:00:57;8.38;;;3.50;;
70342;SDS011;57767;42.068;24.752;2023-09-08T02:02:03;7.90;;;3.58;;
70342;SDS011;57767;42.068;24.752;2023-09-08T02:03:05;6.00;;;3.33;;
70342;SDS011;57767;42.068;24.752;2023-09-08T02:04:07;6.22;;;3.97;;
70342;SDS011;57767;42.068;24.752;2023-09-08T02:05:09;4.95;;;3.60;;
70342;SDS011;57767;42.068;24.752;2023-09-08T02:06:11;6.32;;;4.13;;
70342;SDS011;57767;42.068;24.752;2023-09-08T02:07:12;6.47;;;4.20;;
70342;SDS011;57767;42.068;24.752;2023-09-08T02:08:14;5.35;;;4.07;;
70342;SDS011;57767;42.068;24.752;2023-09-08T02:09:16;6.95;;;4.35;;
70342;SDS011;57767;42.068;24.752;2023-09-08T02:10:18;7.45;;;4.53;;
70342;SDS011;57767;42.068;24.752;2023-09-08T02:11:20;7.22;;;4.32;;
70342;SDS011;57767;42.068;24.752;2023-09-08T02:12:21;8.55;;;4.78;;
70342;SDS011;57767;42.068;24.752;2023-09-08T02:13:23;7.57;;;4.90;;
70342;SDS011;57767;42.068;24.752;2023-09-08T02:14:25;8.32;;;5.22;;
70342;SDS011;57767;42.068;24.752;2023-09-08T02:15:27;12.25;;;5.20;;
70342;SDS011;57767;42.068;24.752;2023-09-08T02:16:29;8.50;;;4.97;;
70342;SDS011;57767;42.068;24.752;2023-09-08T02:17:30;10.15;;;5.20;;
70342;SDS011;57767;42.068;24.752;2023-09-08T02:18:32;9.20;;;5.32;;
70342;SDS011;57767;42.068;24.752;2023-09-08T02:19:34;9.18;;;5.53;;
70342;SDS011;57767;42.068;24.752;2023-09-08T02:20:36;9.30;;;5.28;;
70342;SDS011;57767;42.068;24.752;2023-09-08T02:21:38;9.35;;;5.30;;
70342;SDS011;57767;42.068;24.752;2023-09-08T02:22:39;10.18;;;5.25;;
70342;SDS011;57767;42.068;24.752;2023-09-08T02:23:41;10.50;;;5.28;;
70342;SDS011;57767;42.068;24.752;2023-09-08T02:24:43;10.27;;;5.13;;
70342;SDS011;57767;42.068;24.752;2023-09-08T02:25:44;6.55;;;4.85;;
70342;SDS011;57767;42.068;24.752;2023-09-08T02:26:46;10.68;;;5.72;;
70342;SDS011;57767;42.068;24.752;2023-09-08T02:27:48;8.95;;;5.30;;
70342;SDS011;57767;42.068;24.752;2023-09-08T02:28:50;7.93;;;5.18;;
70342;SDS011;57767;42.068;24.752;2023-09-08T02:29:51;9.30;;;5.43;;
70342;SDS011;57767;42.068;24.752;2023-09-08T02:30:53;6.90;;;5.15;;
70342;SDS011;57767;42.068;24.752;2023-09-08T02:31:55;8.85;;;5.28;;
70342;SDS011;57767;42.068;24.752;2023-09-08T02:32:57;10.93;;;5.22;;
70342;SDS011;57767;42.068;24.752;2023-09-08T02:33:59;8.00;;;5.05;;
70342;SDS011;57767;42.068;24.752;2023-09-08T02:35:01;7.53;;;5.20;;
70342;SDS011;57767;42.068;24.752;2023-09-08T02:36:07;11.80;;;5.88;;
70342;SDS011;57767;42.068;24.752;2023-09-08T02:37:09;8.90;;;5.55;;
70342;SDS011;57767;42.068;24.752;2023-09-08T02:38:10;8.82;;;5.78;;
70342;SDS011;57767;42.068;24.752;2023-09-08T02:39:12;10.65;;;5.72;;
70342;SDS011;57767;42.068;24.752;2023-09-08T02:40:15;10.40;;;5.72;;
70342;SDS011;57767;42.068;24.752;2023-09-08T02:41:16;9.52;;;5.13;;
70342;SDS011;57767;42.068;24.752;2023-09-08T02:42:18;10.25;;;5.60;;
70342;SDS011;57767;42.068;24.752;2023-09-08T02:43:20;9.60;;;5.45;;
70342;SDS011;57767;42.068;24.752;2023-09-08T02:44:22;7.30;;;5.75;;
70342;SDS011;57767;42.068;24.752;2023-09-08T02:45:23;8.52;;;5.60;;
70342;SDS011;57767;42.068;24.752;2023-09-08T02:46:25;10.68;;;5.57;;
70342;SDS011;57767;42.068;24.752;2023-09-08T02:47:27;11.88;;;5.38;;
70342;SDS011;57767;42.068;24.752;2023-09-08T02:48:28;12.13;;;5.70;;
70342;SDS011;57767;42.068;24.752;2023-09-08T02:49:30;7.32;;;5.65;;
70342;SDS011;57767;42.068;24.752;2023-09-08T02:50:33;8.93;;;5.55;;
70342;SDS011;57767;42.068;24.752;2023-09-08T02:51:34;9.27;;;5.18;;
70342;SDS011;57767;42.068;24.752;2023-09-08T02:52:36;5.97;;;5.03;;
70342;SDS011;57767;42.068;24.752;2023-09-08T02:53:38;9.65;;;5.22;;
70342;SDS011;57767;42.068;24.752;2023-09-08T02:54:39;9.55;;;5.25;;
70342;SDS011;57767;42.068;24.752;2023-09-08T02:55:41;10.00;;;5.28;;
70342;SDS011;57767;42.068;24.752;2023-09-08T02:56:43;7.40;;;5.60;;
70342;SDS011;57767;42.068;24.752;2023-09-08T02:57:45;8.40;;;4.78;;
70342;SDS011;57767;42.068;24.752;2023-09-08T02:58:46;5.80;;;4.93;;
70342;SDS011;57767;42.068;24.752;2023-09-08T02:59:48;7.97;;;5.13;;
70342;SDS011;57767;42.068;24.752;2023-09-08T03:00:52;12.05;;;5.05;;
70342;SDS011;57767;42.068;24.752;2023-09-08T03:01:54;8.05;;;5.05;;
70342;SDS011;57767;42.068;24.752;2023-09-08T03:02:56;15.18;;;5.10;;
70342;SDS011;57767;42.068;24.752;2023-09-08T03:03:57;8.07;;;4.55;;
70342;SDS011;57767;42.068;24.752;2023-09-08T03:05:00;8.20;;;5.15;;
70342;SDS011;57767;42.068;24.752;2023-09-08T03:06:02;7.18;;;5.00;;
70342;SDS011;57767;42.068;24.752;2023-09-08T03:07:04;7.55;;;4.82;;
70342;SDS011;57767;42.068;24.752;2023-09-08T03:08:06;14.95;;;4.97;;
70342;SDS011;57767;42.068;24.752;2023-09-08T03:09:08;5.63;;;4.65;;
70342;SDS011;57767;42.068;24.752;2023-09-08T03:10:09;7.60;;;4.80;;
70342;SDS011;57767;42.068;24.752;2023-09-08T03:11:12;11.13;;;4.82;;
70342;SDS011;57767;42.068;24.752;2023-09-08T03:12:14;6.32;;;4.43;;
70342;SDS011;57767;42.068;24.752;2023-09-08T03:13:15;9.02;;;4.80;;
70342;SDS011;57767;42.068;24.752;2023-09-08T03:14:17;8.10;;;4.82;;
70342;SDS011;57767;42.068;24.752;2023-09-08T03:15:19;10.10;;;4.63;;
70342;SDS011;57767;42.068;24.752;2023-09-08T03:16:20;12.27;;;4.40;;
70342;SDS011;57767;42.068;24.752;2023-09-08T03:17:22;7.57;;;5.00;;
70342;SDS011;57767;42.068;24.752;2023-09-08T03:18:24;9.80;;;4.72;;
70342;SDS011;57767;42.068;24.752;2023-09-08T03:19:26;7.93;;;5.28;;
70342;SDS011;57767;42.068;24.752;2023-09-08T03:20:27;6.90;;;5.03;;
70342;SDS011;57767;42.068;24.752;2023-09-08T03:21:29;9.93;;;4.72;;
70342;SDS011;57767;42.068;24.752;2023-09-08T03:22:32;8.00;;;4.88;;
70342;SDS011;57767;42.068;24.752;2023-09-08T03:23:43;7.65;;;4.50;;
70342;SDS011;57767;42.068;24.752;2023-09-08T03:24:45;11.68;;;4.78;;
70342;SDS011;57767;42.068;24.752;2023-09-08T03:25:48;8.10;;;5.05;;
70342;SDS011;57767;42.068;24.752;2023-09-08T03:26:50;10.27;;;5.05;;
70342;SDS011;57767;42.068;24.752;2023-09-08T03:27:51;8.52;;;4.93;;
70342;SDS011;57767;42.068;24.752;2023-09-08T03:28:53;6.75;;;4.88;;
70342;SDS011;57767;42.068;24.752;2023-09-08T03:29:55;8.38;;;4.28;;
70342;SDS011;57767;42.068;24.752;2023-09-08T03:30:56;9.15;;;4.80;;
70342;SDS011;57767;42.068;24.752;2023-09-08T03:31:58;10.50;;;4.47;;
70342;SDS011;57767;42.068;24.752;2023-09-08T03:33:00;8.60;;;4.30;;
70342;SDS011;57767;42.068;24.752;2023-09-08T03:34:02;9.60;;;4.47;;
70342;SDS011;57767;42.068;24.752;2023-09-08T03:35:04;6.93;;;4.13;;
70342;SDS011;57767;42.068;24.752;2023-09-08T03:36:09;6.47;;;4.28;;
70342;SDS011;57767;42.068;24.752;2023-09-08T03:37:11;4.82;;;3.88;;
70342;SDS011;57767;42.068;24.752;2023-09-08T03:38:13;7.40;;;4.40;;
70342;SDS011;57767;42.068;24.752;2023-09-08T03:39:14;8.02;;;4.43;;
70342;SDS011;57767;42.068;24.752;2023-09-08T03:40:16;6.57;;;3.92;;
70342;SDS011;57767;42.068;24.752;2023-09-08T03:41:18;5.22;;;4.20;;
70342;SDS011;57767;42.068;24.752;2023-09-08T03:42:19;5.75;;;4.28;;
70342;SDS011;57767;42.068;24.752;2023-09-08T03:43:21;9.25;;;4.10;;
70342;SDS011;57767;42.068;24.752;2023-09-08T03:44:23;6.10;;;4.13;;
70342;SDS011;57767;42.068;24.752;2023-09-08T03:45:25;8.05;;;4.18;;
70342;SDS011;57767;42.068;24.752;2023-09-08T03:46:26;8.93;;;4.50;;
70342;SDS011;57767;42.068;24.752;2023-09-08T03:47:28;7.70;;;4.32;;
70342;SDS011;57767;42.068;24.752;2023-09-08T03:48:30;5.32;;;4.30;;
70342;SDS011;57767;42.068;24.752;2023-09-08T03:49:32;9.20;;;4.38;;
70342;SDS011;57767;42.068;24.752;2023-09-08T03:50:34;13.77;;;4.45;;
70342;SDS011;57767;42.068;24.752;2023-09-08T03:51:36;6.63;;;4.38;;
70342;SDS011;57767;42.068;24.752;2023-09-08T03:52:38;9.63;;;4.00;;
70342;SDS011;57767;42.068;24.752;2023-09-08T03:53:39;9.00;;;4.85;;
70342;SDS011;57767;42.068;24.752;2023-09-08T03:54:41;8.90;;;4.43;;
70342;SDS011;57767;42.068;24.752;2023-09-08T03:55:44;8.77;;;4.63;;
70342;SDS011;57767;42.068;24.752;2023-09-08T03:56:46;6.30;;;4.32;;
70342;SDS011;57767;42.068;24.752;2023-09-08T03:57:48;8.35;;;4.50;;
70342;SDS011;57767;42.068;24.752;2023-09-08T03:58:49;6.15;;;4.30;;
70342;SDS011;57767;42.068;24.752;2023-09-08T03:59:51;6.70;;;4.03;;
70342;SDS011;57767;42.068;24.752;2023-09-08T04:00:53;4.90;;;3.75;;
70342;SDS011;57767;42.068;24.752;2023-09-08T04:01:56;5.82;;;3.83;;
70342;SDS011;57767;42.068;24.752;2023-09-08T04:02:57;7.53;;;4.00;;
70342;SDS011;57767;42.068;24.752;2023-09-08T04:03:59;8.85;;;4.00;;
70342;SDS011;57767;42.068;24.752;2023-09-08T04:05:01;6.15;;;3.88;;
70342;SDS011;57767;42.068;24.752;2023-09-08T04:06:03;6.47;;;4.10;;
70342;SDS011;57767;42.068;24.752;2023-09-08T04:07:05;9.23;;;4.40;;
70342;SDS011;57767;42.068;24.752;2023-09-08T04:08:07;12.70;;;4.07;;
70342;SDS011;57767;42.068;24.752;2023-09-08T04:09:09;8.80;;;4.38;;
70342;SDS011;57767;42.068;24.752;2023-09-08T04:10:11;7.13;;;4.28;;
70342;SDS011;57767;42.068;24.752;2023-09-08T04:11:13;11.90;;;4.50;;
70342;SDS011;57767;42.068;24.752;2023-09-08T04:12:15;11.02;;;4.10;;
70342;SDS011;57767;42.068;24.752;2023-09-08T04:13:17;5.47;;;4.10;;
70342;SDS011;57767;42.068;24.752;2023-09-08T04:14:19;5.57;;;4.03;;
70342;SDS011;57767;42.068;24.752;2023-09-08T04:15:21;8.20;;;4.75;;
70342;SDS011;57767;42.068;24.752;2023-09-08T04:16:25;9.00;;;4.10;;
70342;SDS011;57767;42.068;24.752;2023-09-08T04:17:27;5.13;;;4.47;;
70342;SDS011;57767;42.068;24.752;2023-09-08T04:18:30;7.68;;;4.32;;
70342;SDS011;57767;42.068;24.752;2023-09-08T04:19:32;9.02;;;4.47;;
70342;SDS011;57767;42.068;24.752;2023-09-08T04:20:34;11.32;;;4.40;;
70342;SDS011;57767;42.068;24.752;2023-09-08T04:21:35;8.50;;;4.43;;
70342;SDS011;57767;42.068;24.752;2023-09-08T04:22:38;6.85;;;3.75;;
70342;SDS011;57767;42.068;24.752;2023-09-08T04:23:40;6.88;;;4.75;;
70342;SDS011;57767;42.068;24.752;2023-09-08T04:24:42;9.35;;;4.22;;
70342;SDS011;57767;42.068;24.752;2023-09-08T04:25:43;8.45;;;4.57;;
70342;SDS011;57767;42.068;24.752;2023-09-08T04:26:45;6.63;;;4.53;;
70342;SDS011;57767;42.068;24.752;2023-09-08T04:27:47;6.03;;;4.32;;
70342;SDS011;57767;42.068;24.752;2023-09-08T04:28:49;8.27;;;4.68;;
70342;SDS011;57767;42.068;24.752;2023-09-08T04:29:50;8.63;;;4.20;;
70342;SDS011;57767;42.068;24.752;2023-09-08T04:30:52;8.60;;;4.20;;
70342;SDS011;57767;42.068;24.752;2023-09-08T04:31:54;9.65;;;4.15;;
70342;SDS011;57767;42.068;24.752;2023-09-08T04:32:55;5.40;;;3.88;;
70342;SDS011;57767;42.068;24.752;2023-09-08T04:33:57;6.53;;;4.18;;
70342;SDS011;57767;42.068;24.752;2023-09-08T04:34:59;5.90;;;3.78;;
70342;SDS011;57767;42.068;24.752;2023-09-08T04:36:01;8.05;;;4.10;;
70342;SDS011;57767;42.068;24.752;2023-09-08T04:37:03;11.27;;;3.80;;
70342;SDS011;57767;42.068;24.752;2023-09-08T04:38:05;7.65;;;3.63;;
70342;SDS011;57767;42.068;24.752;2023-09-08T04:39:06;9.55;;;3.80;;
70342;SDS011;57767;42.068;24.752;2023-09-08T04:40:12;6.35;;;4.18;;
70342;SDS011;57767;42.068;24.752;2023-09-08T04:41:13;8.40;;;4.38;;
70342;SDS011;57767;42.068;24.752;2023-09-08T04:42:15;4.60;;;3.65;;
70342;SDS011;57767;42.068;24.752;2023-09-08T04:43:17;8.60;;;4.40;;
70342;SDS011;57767;42.068;24.752;2023-09-08T04:44:19;5.00;;;4.50;;
70342;SDS011;57767;42.068;24.752;2023-09-08T04:45:20;6.22;;;4.15;;
70342;SDS011;57767;42.068;24.752;2023-09-08T04:46:22;11.50;;;4.18;;
70342;SDS011;57767;42.068;24.752;2023-09-08T04:47:24;4.47;;;3.72;;
70342;SDS011;57767;42.068;24.752;2023-09-08T04:48:25;8.43;;;3.95;;
70342;SDS011;57767;42.068;24.752;2023-09-08T04:49:31;9.20;;;4.53;;
70342;SDS011;57767;42.068;24.752;2023-09-08T04:50:33;7.25;;;3.83;;
70342;SDS011;57767;42.068;24.752;2023-09-08T04:51:35;8.60;;;4.18;;
70342;SDS011;57767;42.068;24.752;2023-09-08T04:52:37;5.35;;;4.13;;
70342;SDS011;57767;42.068;24.752;2023-09-08T04:53:41;9.70;;;4.20;;
70342;SDS011;57767;42.068;24.752;2023-09-08T04:54:43;5.95;;;3.75;;
70342;SDS011;57767;42.068;24.752;2023-09-08T04:55:45;7.10;;;3.85;;
70342;SDS011;57767;42.068;24.752;2023-09-08T04:56:46;7.13;;;3.92;;
70342;SDS011;57767;42.068;24.752;2023-09-08T04:57:48;7.32;;;4.20;;
70342;SDS011;57767;42.068;24.752;2023-09-08T04:58:50;8.27;;;3.95;;
70342;SDS011;57767;42.068;24.752;2023-09-08T04:59:52;8.40;;;3.97;;
70342;SDS011;57767;42.068;24.752;2023-09-08T05:00:53;10.70;;;4.38;;
70342;SDS011;57767;42.068;24.752;2023-09-08T05:01:55;7.72;;;3.65;;
70342;SDS011;57767;42.068;24.752;2023-09-08T05:02:57;10.07;;;4.03;;
70342;SDS011;57767;42.068;24.752;2023-09-08T05:03:59;5.55;;;4.13;;
70342;SDS011;57767;42.068;24.752;2023-09-08T05:05:01;12.57;;;4.82;;
70342;SDS011;57767;42.068;24.752;2023-09-08T05:06:02;8.60;;;4.65;;
70342;SDS011;57767;42.068;24.752;2023-09-08T05:07:04;7.95;;;4.40;;
70342;SDS011;57767;42.068;24.752;2023-09-08T05:08:07;8.07;;;4.57;;
70342;SDS011;57767;42.068;24.752;2023-09-08T05:09:08;7.15;;;4.10;;
70342;SDS011;57767;42.068;24.752;2023-09-08T05:10:11;8.05;;;4.20;;
70342;SDS011;57767;42.068;24.752;2023-09-08T05:11:13;8.90;;;4.57;;
70342;SDS011;57767;42.068;24.752;2023-09-08T05:12:15;7.82;;;4.40;;
70342;SDS011;57767;42.068;24.752;2023-09-08T05:13:17;8.63;;;4.05;;
70342;SDS011;57767;42.068;24.752;2023-09-08T05:14:31;7.57;;;4.28;;
70342;SDS011;57767;42.068;24.752;2023-09-08T05:15:33;9.02;;;4.57;;
70342;SDS011;57767;42.068;24.752;2023-09-08T05:16:35;6.03;;;3.95;;
70342;SDS011;57767;42.068;24.752;2023-09-08T05:17:39;9.15;;;4.40;;
70342;SDS011;57767;42.068;24.752;2023-09-08T05:18:41;5.80;;;3.88;;
70342;SDS011;57767;42.068;24.752;2023-09-08T05:19:43;9.70;;;3.92;;
70342;SDS011;57767;42.068;24.752;2023-09-08T05:20:44;9.77;;;4.72;;
70342;SDS011;57767;42.068;24.752;2023-09-08T05:21:52;6.53;;;4.07;;
70342;SDS011;57767;42.068;24.752;2023-09-08T05:22:56;9.85;;;4.25;;
70342;SDS011;57767;42.068;24.752;2023-09-08T05:23:57;5.97;;;4.10;;
70342;SDS011;57767;42.068;24.752;2023-09-08T05:24:59;9.57;;;3.85;;
70342;SDS011;57767;42.068;24.752;2023-09-08T05:26:01;8.77;;;4.40;;
70342;SDS011;57767;42.068;24.752;2023-09-08T05:27:03;11.00;;;3.95;;
70342;SDS011;57767;42.068;24.752;2023-09-08T05:28:05;8.73;;;4.60;;
70342;SDS011;57767;42.068;24.752;2023-09-08T05:29:07;12.32;;;4.50;;
70342;SDS011;57767;42.068;24.752;2023-09-08T05:30:09;11.60;;;4.25;;
70342;SDS011;57767;42.068;24.752;2023-09-08T05:31:11;7.05;;;3.97;;
70342;SDS011;57767;42.068;24.752;2023-09-08T05:32:12;10.75;;;4.57;;
70342;SDS011;57767;42.068;24.752;2023-09-08T05:33:14;8.85;;;4.50;;
70342;SDS011;57767;42.068;24.752;2023-09-08T05:34:16;8.90;;;5.00;;
70342;SDS011;57767;42.068;24.752;2023-09-08T05:35:18;8.68;;;4.40;;
70342;SDS011;57767;42.068;24.752;2023-09-08T05:36:19;6.63;;;4.43;;
70342;SDS011;57767;42.068;24.752;2023-09-08T05:37:21;11.27;;;4.82;;
70342;SDS011;57767;42.068;24.752;2023-09-08T05:38:23;10.02;;;4.88;;
70342;SDS011;57767;42.068;24.752;2023-09-08T05:39:27;12.95;;;5.75;;
70342;SDS011;57767;42.068;24.752;2023-09-08T05:40:28;10.85;;;6.10;;
70342;SDS011;57767;42.068;24.752;2023-09-08T05:41:30;8.73;;;5.32;;
70342;SDS011;57767;42.068;24.752;2023-09-08T05:42:33;13.88;;;5.28;;
70342;SDS011;57767;42.068;24.752;2023-09-08T05:43:35;11.25;;;5.65;;
70342;SDS011;57767;42.068;24.752;2023-09-08T05:44:36;10.93;;;5.30;;
70342;SDS011;57767;42.068;24.752;2023-09-08T05:45:38;8.65;;;4.80;;
70342;SDS011;57767;42.068;24.752;2023-09-08T05:46:40;9.73;;;4.82;;
70342;SDS011;57767;42.068;24.752;2023-09-08T05:47:41;11.23;;;5.13;;
70342;SDS011;57767;42.068;24.752;2023-09-08T05:48:43;11.57;;;4.88;;
70342;SDS011;57767;42.068;24.752;2023-09-08T05:49:45;11.02;;;4.72;;
70342;SDS011;57767;42.068;24.752;2023-09-08T05:50:47;10.07;;;5.38;;
70342;SDS011;57767;42.068;24.752;2023-09-08T05:51:49;13.38;;;5.35;;
70342;SDS011;57767;42.068;24.752;2023-09-08T05:52:51;9.68;;;5.13;;
70342;SDS011;57767;42.068;24.752;2023-09-08T05:53:53;9.77;;;4.53;;
70342;SDS011;57767;42.068;24.752;2023-09-08T05:54:54;18.13;;;5.05;;
70342;SDS011;57767;42.068;24.752;2023-09-08T05:55:56;12.38;;;5.03;;
70342;SDS011;57767;42.068;24.752;2023-09-08T05:56:58;9.35;;;4.60;;
70342;SDS011;57767;42.068;24.752;2023-09-08T05:58:00;12.18;;;4.80;;
70342;SDS011;57767;42.068;24.752;2023-09-08T05:59:02;8.20;;;4.20;;
70342;SDS011;57767;42.068;24.752;2023-09-08T06:00:04;10.23;;;4.50;;
70342;SDS011;57767;42.068;24.752;2023-09-08T06:01:06;10.15;;;4.40;;
70342;SDS011;57767;42.068;24.752;2023-09-08T06:02:08;13.32;;;4.07;;
70342;SDS011;57767;42.068;24.752;2023-09-08T06:03:10;7.72;;;4.07;;
70342;SDS011;57767;42.068;24.752;2023-09-08T06:04:12;11.65;;;4.32;;
70342;SDS011;57767;42.068;24.752;2023-09-08T06:05:14;6.60;;;4.10;;
70342;SDS011;57767;42.068;24.752;2023-09-08T06:06:15;9.85;;;4.40;;
70342;SDS011;57767;42.068;24.752;2023-09-08T06:07:17;8.43;;;4.30;;
70342;SDS011;57767;42.068;24.752;2023-09-08T06:08:19;8.27;;;3.80;;
70342;SDS011;57767;42.068;24.752;2023-09-08T06:09:21;8.73;;;3.78;;
70342;SDS011;57767;42.068;24.752;2023-09-08T06:10:22;8.48;;;3.75;;
70342;SDS011;57767;42.068;24.752;2023-09-08T06:11:24;13.55;;;4.20;;
70342;SDS011;57767;42.068;24.752;2023-09-08T06:12:26;8.40;;;4.20;;